createdAt,value
2022-08-31T02:27:25.978Z,19.82
2022-08-31T02:28:25.934Z,19.89
2022-08-31T02:30:29.837Z,19.82
2022-08-31T02:31:29.819Z,19.79
2022-08-31T02:33:33.707Z,19.77
2022-08-31T02:34:33.665Z,19.79
2022-08-31T02:36:37.580Z,19.73
2022-08-31T02:37:37.532Z,19.74
2022-08-31T02:39:41.438Z,19.88
2022-08-31T02:42:19.926Z,19.91
2022-08-31T02:43:24.278Z,19.77
2022-08-31T02:47:02.270Z,19.52
2022-08-31T02:48:02.231Z,19.48
2022-08-31T02:50:06.143Z,19.51
2022-08-31T02:51:06.104Z,19.40
2022-08-31T02:53:10.050Z,19.51
2022-08-31T02:54:09.975Z,19.54
2022-08-31T02:56:13.893Z,19.59
2022-08-31T02:57:13.848Z,19.45
2022-08-31T02:59:17.777Z,19.51
2022-08-31T03:00:17.718Z,19.55
2022-08-31T03:02:11.248Z,19.67
2022-08-31T03:03:11.183Z,19.67
2022-08-31T03:05:14.969Z,19.76
2022-08-31T03:06:14.921Z,19.77
2022-08-31T03:08:18.831Z,19.91
2022-08-31T03:09:18.797Z,19.88
2022-08-31T03:11:22.717Z,19.85
2022-08-31T03:12:22.700Z,19.86
2022-08-31T03:14:26.580Z,19.95
2022-08-31T03:15:26.552Z,19.99
2022-08-31T03:17:30.469Z,19.99
2022-08-31T03:18:30.421Z,19.96
2022-08-31T03:20:34.716Z,19.94
2022-08-31T03:21:34.288Z,20.00
2022-08-31T03:23:38.195Z,19.99
2022-08-31T03:24:38.160Z,19.94
2022-08-31T03:26:42.077Z,19.66
2022-08-31T03:27:42.054Z,19.74
2022-08-31T03:29:45.935Z,19.82
2022-08-31T03:30:46.004Z,19.89
2022-08-31T03:32:49.820Z,19.99
2022-08-31T03:33:49.804Z,19.99
2022-08-31T03:35:53.678Z,20.00
2022-08-31T03:36:53.644Z,20.02
2022-08-31T03:38:57.559Z,20.04
2022-08-31T03:41:36.022Z,19.99
2022-08-31T03:42:35.989Z,19.92
2022-08-31T03:44:39.734Z,19.91
2022-08-31T03:45:39.691Z,19.86
2022-08-31T03:47:44.820Z,19.89
2022-08-31T03:48:43.559Z,19.79
2022-08-31T03:50:47.483Z,19.77
2022-08-31T03:51:47.432Z,19.77
2022-08-31T03:53:51.341Z,19.76
2022-08-31T03:54:51.315Z,19.63
2022-08-31T03:56:55.228Z,19.64
2022-08-31T03:57:55.176Z,19.64
2022-08-31T03:59:59.084Z,19.56
2022-08-31T04:00:59.048Z,19.58
2022-08-31T04:03:02.991Z,19.54
2022-08-31T04:04:02.917Z,19.56
2022-08-31T04:06:06.826Z,19.52
2022-08-31T04:07:06.788Z,19.41
2022-08-31T04:09:10.705Z,19.55
2022-08-31T04:10:10.659Z,19.51
2022-08-31T04:12:03.501Z,19.54
2022-08-31T04:13:03.458Z,19.48
2022-08-31T04:15:07.359Z,19.55
2022-08-31T04:16:07.367Z,19.44
2022-08-31T04:18:14.288Z,19.51
2022-08-31T04:19:14.231Z,19.45
2022-08-31T04:21:18.144Z,19.44
2022-08-31T04:22:18.102Z,19.40
2022-08-31T04:24:22.025Z,19.47
2022-08-31T04:25:21.976Z,19.47
2022-08-31T04:27:25.876Z,19.49
2022-08-31T04:28:25.844Z,19.54
2022-08-31T04:30:30.258Z,19.52
2022-08-31T04:31:32.806Z,19.47
2022-08-31T04:32:30.177Z,19.45
2022-08-31T04:33:30.148Z,19.54
2022-08-31T04:34:30.114Z,19.48
2022-08-31T04:35:30.084Z,19.51
2022-08-31T04:36:30.052Z,19.44
2022-08-31T04:37:30.022Z,19.51
2022-08-31T04:38:29.995Z,19.58
2022-08-31T04:39:32.823Z,19.62
2022-08-31T04:40:29.987Z,19.58
2022-08-31T04:41:29.906Z,19.52
2022-08-31T04:42:29.867Z,19.55
2022-08-31T04:43:29.837Z,19.54
2022-08-31T04:44:29.812Z,19.56
2022-08-31T04:45:29.823Z,19.59
2022-08-31T04:46:29.751Z,19.54
2022-08-31T04:47:29.716Z,19.48
2022-08-31T04:48:29.831Z,19.54
2022-08-31T04:49:29.659Z,19.56
2022-08-31T04:50:29.627Z,19.52
2022-08-31T04:51:29.598Z,19.63
2022-08-31T04:52:29.564Z,19.54
2022-08-31T04:53:29.540Z,19.54
2022-08-31T04:54:29.506Z,19.59
2022-08-31T04:55:29.473Z,19.55
2022-08-31T04:56:29.442Z,19.59
2022-08-31T04:57:29.413Z,19.45
2022-08-31T04:58:29.380Z,19.56
2022-08-31T04:59:29.347Z,19.55
2022-08-31T05:00:29.321Z,19.49
2022-08-31T05:01:29.340Z,19.56
2022-08-31T05:02:29.377Z,19.69
2022-08-31T05:03:29.273Z,19.64
2022-08-31T05:04:29.338Z,19.64
2022-08-31T05:05:29.166Z,19.66
2022-08-31T05:06:29.134Z,19.64
2022-08-31T05:07:29.105Z,19.66
2022-08-31T05:08:29.078Z,19.70
2022-08-31T05:09:29.048Z,19.67
2022-08-31T05:10:29.014Z,19.73
2022-08-31T05:11:28.991Z,19.73
2022-08-31T05:12:28.953Z,19.73
2022-08-31T05:13:28.922Z,19.77
2022-08-31T05:14:28.889Z,19.63
2022-08-31T05:15:28.861Z,19.64
2022-08-31T05:16:28.888Z,19.66
2022-08-31T05:17:28.798Z,19.70
2022-08-31T05:20:07.309Z,19.66
2022-08-31T05:21:07.248Z,19.58
2022-08-31T05:23:22.900Z,19.52
2022-08-31T05:26:04.597Z,19.56
2022-08-31T05:27:01.340Z,19.47
2022-08-31T05:29:05.248Z,19.54
2022-08-31T05:31:36.800Z,19.44
2022-08-31T05:32:38.157Z,19.47
2022-08-31T05:34:40.662Z,19.45
2022-08-31T05:35:40.616Z,19.41
2022-08-31T05:37:44.364Z,19.51
2022-08-31T05:38:44.322Z,19.52
2022-08-31T05:40:48.289Z,19.51
2022-08-31T05:41:48.189Z,19.52
2022-08-31T05:43:52.106Z,19.51
2022-08-31T05:44:52.062Z,19.40
2022-08-31T05:47:00.926Z,19.51
2022-08-31T05:47:55.926Z,19.52
2022-08-31T05:49:59.837Z,19.55
2022-08-31T05:50:59.794Z,19.56
2022-08-31T05:53:03.707Z,19.45
2022-08-31T05:54:03.666Z,19.49
2022-08-31T05:56:07.576Z,19.51
2022-08-31T05:57:07.529Z,19.58
2022-08-31T05:59:11.442Z,19.59
2022-08-31T06:00:11.400Z,19.56
2022-08-31T06:02:04.345Z,19.58
2022-08-31T06:03:04.202Z,19.66
2022-08-31T06:05:08.143Z,19.58
2022-08-31T06:06:08.068Z,19.64
2022-08-31T06:08:15.358Z,19.62
2022-08-31T06:09:11.944Z,19.59
2022-08-31T06:11:15.848Z,19.64
2022-08-31T06:12:15.813Z,19.66
2022-08-31T06:14:19.732Z,19.69
2022-08-31T06:15:19.683Z,19.62
2022-08-31T06:17:35.340Z,19.62
2022-08-31T06:18:35.304Z,19.51
2022-08-31T06:20:39.224Z,19.62
2022-08-31T06:21:39.173Z,19.63
2022-08-31T06:23:43.086Z,19.67
2022-08-31T06:24:43.083Z,19.66
2022-08-31T06:26:46.959Z,19.71
2022-08-31T06:27:46.916Z,19.73
2022-08-31T06:29:50.819Z,19.74
2022-08-31T06:30:55.228Z,19.74
2022-08-31T06:32:58.457Z,19.76
2022-08-31T06:33:54.655Z,19.81
2022-08-31T06:35:58.568Z,19.82
2022-08-31T06:36:58.526Z,19.84
2022-08-31T06:39:02.440Z,19.92
2022-08-31T06:40:02.439Z,19.88
2022-08-31T06:41:55.243Z,19.99
2022-08-31T06:42:55.202Z,20.00
2022-08-31T06:44:59.111Z,20.02
2022-08-31T06:45:59.095Z,19.99
2022-08-31T06:48:02.976Z,19.99
2022-08-31T06:49:02.932Z,20.04
2022-08-31T06:51:06.848Z,20.10
2022-08-31T06:52:06.817Z,20.06
2022-08-31T06:54:28.648Z,20.10
2022-08-31T06:55:10.684Z,20.16
2022-08-31T06:57:14.606Z,20.18
2022-08-31T06:58:14.559Z,20.16
2022-08-31T07:00:18.464Z,20.21
2022-08-31T07:01:18.427Z,20.19
2022-08-31T07:03:22.342Z,20.22
2022-08-31T07:04:22.299Z,20.18
2022-08-31T07:06:26.214Z,20.22
2022-08-31T07:07:26.170Z,20.19
2022-08-31T07:09:30.080Z,20.24
2022-08-31T07:10:30.041Z,20.25
2022-08-31T07:12:22.899Z,20.34
2022-08-31T07:13:22.841Z,20.29
2022-08-31T07:15:26.757Z,20.29
2022-08-31T07:16:26.735Z,20.32
2022-08-31T07:18:30.644Z,20.43
2022-08-31T07:19:30.590Z,20.44
2022-08-31T07:21:34.497Z,20.41
2022-08-31T07:22:34.462Z,20.47
2022-08-31T07:24:38.380Z,20.55
2022-08-31T07:25:38.335Z,20.60
2022-08-31T07:27:42.252Z,20.56
2022-08-31T07:28:42.202Z,20.60
2022-08-31T07:30:46.181Z,20.58
2022-08-31T07:31:46.073Z,20.65
2022-08-31T07:33:49.981Z,20.70
2022-08-31T07:34:57.341Z,20.74
2022-08-31T07:36:54.455Z,20.75
2022-08-31T07:37:54.210Z,20.80
2022-08-31T07:39:57.911Z,20.77
2022-08-31T07:40:57.931Z,20.74
2022-08-31T07:41:57.851Z,20.77
2022-08-31T07:42:57.821Z,20.90
2022-08-31T07:43:57.793Z,20.88
2022-08-31T07:44:57.769Z,20.92
2022-08-31T07:45:57.777Z,20.93
2022-08-31T07:46:57.700Z,20.90
2022-08-31T07:47:57.676Z,21.00
2022-08-31T07:48:57.644Z,21.00
2022-08-31T07:49:57.609Z,20.99
2022-08-31T07:50:57.750Z,20.97
2022-08-31T07:51:57.551Z,21.00
2022-08-31T07:52:57.518Z,21.05
2022-08-31T07:53:57.512Z,20.97
2022-08-31T07:54:57.468Z,21.00
2022-08-31T07:55:57.429Z,21.02
2022-08-31T07:56:57.400Z,20.97
2022-08-31T07:57:57.373Z,20.75
2022-08-31T07:58:57.343Z,20.77
2022-08-31T07:59:57.309Z,20.80
2022-08-31T08:00:57.280Z,20.82
2022-08-31T08:01:57.316Z,20.84
2022-08-31T08:02:57.260Z,20.82
2022-08-31T08:03:57.196Z,20.84
2022-08-31T08:04:57.163Z,20.95
2022-08-31T08:05:57.133Z,21.02
2022-08-31T08:06:57.105Z,20.99
2022-08-31T08:07:57.071Z,21.06
2022-08-31T08:09:19.365Z,21.05
2022-08-31T08:09:57.013Z,21.12
2022-08-31T08:10:56.982Z,21.07
2022-08-31T08:11:56.951Z,21.14
2022-08-31T08:12:56.921Z,21.11
2022-08-31T08:13:56.893Z,21.18
2022-08-31T08:14:56.862Z,21.21
2022-08-31T08:15:56.886Z,21.21
2022-08-31T08:16:58.438Z,21.22
2022-08-31T08:17:56.777Z,21.27
2022-08-31T08:18:56.744Z,21.24
2022-08-31T08:19:56.718Z,21.39
2022-08-31T08:20:56.687Z,21.40
2022-08-31T08:21:58.428Z,21.35
2022-08-31T08:22:56.627Z,21.46
2022-08-31T08:23:56.597Z,21.51
2022-08-31T08:24:56.882Z,21.45
2022-08-31T08:25:56.537Z,21.54
2022-08-31T08:26:56.506Z,21.51
2022-08-31T08:27:58.440Z,21.52
2022-08-31T08:28:56.451Z,21.62
2022-08-31T08:29:56.418Z,21.61
2022-08-31T08:30:56.389Z,21.72
2022-08-31T08:31:56.642Z,21.70
2022-08-31T08:32:56.330Z,21.69
2022-08-31T08:33:57.930Z,21.69
2022-08-31T08:34:56.270Z,21.70
2022-08-31T08:35:56.244Z,21.80
2022-08-31T08:36:56.212Z,21.85
2022-08-31T08:37:59.210Z,21.93
2022-08-31T08:38:56.154Z,21.91
2022-08-31T08:39:56.125Z,21.91
2022-08-31T08:40:56.093Z,21.92
2022-08-31T08:41:56.066Z,21.98
2022-08-31T08:42:56.036Z,21.98
2022-08-31T08:43:57.358Z,21.95
2022-08-31T08:44:55.975Z,22.04
2022-08-31T08:45:55.995Z,22.10
2022-08-31T08:46:55.989Z,22.15
2022-08-31T08:47:55.888Z,22.18
2022-08-31T08:48:56.147Z,22.17
2022-08-31T08:49:55.843Z,22.18
2022-08-31T08:50:55.801Z,22.26
2022-08-31T08:51:55.769Z,22.28
2022-08-31T08:52:55.739Z,22.26
2022-08-31T08:53:55.709Z,22.28
2022-08-31T08:54:55.680Z,22.38
2022-08-31T08:57:34.179Z,22.41
2022-08-31T08:58:34.136Z,22.43
2022-08-31T09:00:38.057Z,22.45
2022-08-31T09:01:38.105Z,22.48
2022-08-31T09:03:41.909Z,22.60
2022-08-31T09:04:41.885Z,22.55
2022-08-31T09:06:47.641Z,22.63
2022-08-31T09:07:45.588Z,22.65
2022-08-31T09:09:49.516Z,22.69
2022-08-31T09:10:49.464Z,22.78
2022-08-31T09:12:53.369Z,22.63
2022-08-31T09:13:53.340Z,22.73
2022-08-31T09:15:57.309Z,22.80
2022-08-31T09:16:57.214Z,22.75
2022-08-31T09:19:01.133Z,22.91
2022-08-31T09:20:01.094Z,22.88
2022-08-31T09:21:53.944Z,22.91
2022-08-31T09:22:53.892Z,22.93
2022-08-31T09:24:57.799Z,23.06
2022-08-31T09:25:57.774Z,23.12
2022-08-31T09:28:01.687Z,23.09
2022-08-31T09:29:01.642Z,23.08
2022-08-31T09:31:05.602Z,23.12
2022-08-31T09:32:06.421Z,23.20
2022-08-31T09:34:09.441Z,23.21
2022-08-31T09:35:09.393Z,23.20
2022-08-31T09:37:13.317Z,23.13
2022-08-31T09:38:13.282Z,23.06
2022-08-31T09:40:19.651Z,23.12
2022-08-31T09:41:17.145Z,23.10
2022-08-31T09:43:21.236Z,23.13
2022-08-31T09:44:21.027Z,23.20
2022-08-31T09:46:25.008Z,23.27
2022-08-31T09:47:24.910Z,23.24
2022-08-31T09:49:28.822Z,23.46
2022-08-31T09:50:28.777Z,23.46
2022-08-31T09:52:21.719Z,23.48
2022-08-31T09:53:21.587Z,23.56
2022-08-31T09:54:21.556Z,23.71
2022-08-31T09:55:21.546Z,23.74
2022-08-31T09:56:21.500Z,23.84
2022-08-31T09:57:21.471Z,23.93
2022-08-31T09:58:21.440Z,23.95
2022-08-31T09:59:21.410Z,23.87
2022-08-31T10:00:21.384Z,24.01
2022-08-31T10:01:21.405Z,23.92
2022-08-31T10:02:21.330Z,23.96
2022-08-31T10:03:21.681Z,23.96
2022-08-31T10:04:21.272Z,24.06
2022-08-31T10:05:21.321Z,24.16
2022-08-31T10:06:21.263Z,24.28
2022-08-31T10:07:21.185Z,24.30
2022-08-31T10:08:21.161Z,24.06
2022-08-31T10:09:21.129Z,24.01
2022-08-31T10:10:30.163Z,23.93
2022-08-31T10:11:22.694Z,24.03
2022-08-31T10:12:21.052Z,24.20
2022-08-31T10:13:21.078Z,24.30
2022-08-31T10:14:20.992Z,24.36
2022-08-31T10:15:20.977Z,24.38
2022-08-31T10:16:22.026Z,24.35
2022-08-31T10:17:20.908Z,24.48
2022-08-31T10:18:20.882Z,24.58
2022-08-31T10:19:20.858Z,24.66
2022-08-31T10:20:20.824Z,24.57
2022-08-31T10:21:20.812Z,24.63
2022-08-31T10:22:20.769Z,24.73
2022-08-31T10:23:21.084Z,24.89
2022-08-31T10:24:20.844Z,25.01
2022-08-31T10:25:20.763Z,25.10
2022-08-31T10:26:20.658Z,25.21
2022-08-31T10:27:20.634Z,25.16
2022-08-31T10:28:20.604Z,25.16
2022-08-31T10:29:22.846Z,25.13
2022-08-31T10:30:20.563Z,25.14
2022-08-31T10:31:22.235Z,25.06
2022-08-31T10:33:59.019Z,25.06
2022-08-31T10:34:58.975Z,25.08
2022-08-31T10:37:02.737Z,25.31
2022-08-31T10:38:02.701Z,25.35
2022-08-31T10:40:06.616Z,25.25
2022-08-31T10:41:06.578Z,25.22
2022-08-31T10:43:10.515Z,25.40
2022-08-31T10:44:10.463Z,25.38
2022-08-31T10:46:14.430Z,25.46
2022-08-31T10:47:14.391Z,25.53
2022-08-31T10:49:18.270Z,25.50
2022-08-31T10:50:18.221Z,25.58
2022-08-31T10:52:11.060Z,25.53
2022-08-31T10:53:11.030Z,25.48
2022-08-31T10:55:14.953Z,25.53
2022-08-31T10:56:14.920Z,25.47
2022-08-31T10:58:18.850Z,25.60
2022-08-31T10:59:18.794Z,25.58
2022-08-31T11:01:22.579Z,25.68
2022-08-31T11:02:22.506Z,25.80
2022-08-31T11:06:04.916Z,25.73
2022-08-31T11:07:04.876Z,25.81
2022-08-31T11:09:08.813Z,25.81
2022-08-31T11:10:08.753Z,25.87
2022-08-31T11:12:02.100Z,26.02
2022-08-31T11:13:02.062Z,26.02
2022-08-31T11:15:05.991Z,26.16
2022-08-31T11:16:05.998Z,26.07
2022-08-31T11:18:09.858Z,26.07
2022-08-31T11:19:09.827Z,25.95
2022-08-31T11:21:13.749Z,25.95
2022-08-31T11:22:13.711Z,26.05
2022-08-31T11:24:17.641Z,26.06
2022-08-31T11:25:17.629Z,26.09
2022-08-31T11:27:21.549Z,26.19
2022-08-31T11:28:21.503Z,26.22
2022-08-31T11:30:25.402Z,26.41
2022-08-31T11:33:03.901Z,26.43
2022-08-31T11:34:15.868Z,26.38
2022-08-31T11:36:07.855Z,26.34
2022-08-31T11:37:07.736Z,26.40
2022-08-31T11:39:13.166Z,26.28
2022-08-31T11:40:11.675Z,26.28
2022-08-31T11:41:11.593Z,26.31
2022-08-31T11:42:11.564Z,26.37
2022-08-31T11:43:11.554Z,26.41
2022-08-31T11:44:11.509Z,26.38
2022-08-31T11:45:14.138Z,26.45
2022-08-31T11:46:11.588Z,26.44
2022-08-31T11:47:11.433Z,26.53
2022-08-31T11:48:11.408Z,26.56
2022-08-31T11:49:11.380Z,26.59
2022-08-31T11:50:11.386Z,26.70
2022-08-31T11:51:11.324Z,26.68
2022-08-31T11:52:11.305Z,26.80
2022-08-31T11:53:11.320Z,26.84
2022-08-31T11:54:11.251Z,26.92
2022-08-31T11:55:11.222Z,26.84
2022-08-31T11:56:11.198Z,26.90
2022-08-31T11:57:11.167Z,26.97
2022-08-31T11:58:11.155Z,27.00
2022-08-31T11:59:11.141Z,27.17
2022-08-31T12:00:11.090Z,27.26
2022-08-31T12:01:11.064Z,27.37
2022-08-31T12:02:11.073Z,27.45
2022-08-31T12:03:11.017Z,27.60
2022-08-31T12:04:10.987Z,27.85
2022-08-31T12:05:11.047Z,28.00
2022-08-31T12:06:10.940Z,28.12
2022-08-31T12:07:10.905Z,28.32
2022-08-31T12:08:10.880Z,28.44
2022-08-31T12:09:10.856Z,28.56
2022-08-31T12:10:10.832Z,28.57
2022-08-31T12:11:10.805Z,28.66
2022-08-31T12:12:10.783Z,28.76
2022-08-31T12:13:10.758Z,28.84
2022-08-31T12:14:10.732Z,28.79
2022-08-31T12:15:10.703Z,28.69
2022-08-31T12:16:10.751Z,28.56
2022-08-31T12:17:10.658Z,28.54
2022-08-31T12:18:10.635Z,28.57
2022-08-31T12:19:10.605Z,28.51
2022-08-31T12:20:10.582Z,28.79
2022-08-31T12:21:10.587Z,28.82
2022-08-31T12:22:10.536Z,28.93
2022-08-31T12:23:10.511Z,28.98
2022-08-31T12:24:10.483Z,28.91
2022-08-31T12:25:10.455Z,28.98
2022-08-31T12:26:10.428Z,29.24
2022-08-31T12:27:10.409Z,29.29
2022-08-31T12:28:10.385Z,29.32
2022-08-31T12:29:10.354Z,29.66
2022-08-31T12:30:10.333Z,29.73
2022-08-31T12:31:10.362Z,29.95
2022-08-31T12:32:11.315Z,30.24
2022-08-31T12:33:10.342Z,30.31
2022-08-31T12:34:10.235Z,30.37
2022-08-31T12:35:10.209Z,30.47
2022-08-31T12:36:10.219Z,30.62
2022-08-31T12:37:10.217Z,30.80
2022-08-31T12:38:10.204Z,30.88
2022-08-31T12:39:10.126Z,30.91
2022-08-31T12:40:10.167Z,30.96
2022-08-31T12:41:10.070Z,31.09
2022-08-31T12:42:10.045Z,31.18
2022-08-31T12:43:10.024Z,31.24
2022-08-31T12:44:10.593Z,31.27
2022-08-31T12:45:09.972Z,31.25
2022-08-31T12:46:10.010Z,31.24
2022-08-31T12:47:09.927Z,31.25
2022-08-31T12:48:09.912Z,31.18
2022-08-31T12:49:09.877Z,31.33
2022-08-31T12:50:09.857Z,31.42
2022-08-31T12:51:09.832Z,31.52
2022-08-31T12:52:09.812Z,31.55
2022-08-31T12:53:09.792Z,31.61
2022-08-31T12:54:09.771Z,31.76
2022-08-31T12:55:09.740Z,31.89
2022-08-31T12:56:09.718Z,32.16
2022-08-31T12:57:09.691Z,32.23
2022-08-31T12:58:09.673Z,32.41
2022-08-31T12:59:09.647Z,32.56
2022-08-31T13:00:13.000Z,32.73
2022-08-31T13:01:09.756Z,32.92
2022-08-31T13:02:09.773Z,33.07
2022-08-31T13:03:09.560Z,33.12
2022-08-31T13:04:09.540Z,33.22
2022-08-31T13:05:09.515Z,33.02
2022-08-31T13:06:09.498Z,32.95
2022-08-31T13:07:09.470Z,32.83
2022-08-31T13:08:10.999Z,32.75
2022-08-31T13:09:09.427Z,32.95
2022-08-31T13:10:09.407Z,33.04
2022-08-31T13:11:09.384Z,33.08
2022-08-31T13:12:09.359Z,33.02
2022-08-31T13:13:09.337Z,33.12
2022-08-31T13:14:09.318Z,33.01
2022-08-31T13:15:09.289Z,32.92
2022-08-31T13:16:09.267Z,32.89
2022-08-31T13:17:09.298Z,32.86
2022-08-31T13:18:09.226Z,32.77
2022-08-31T13:19:09.197Z,32.67
2022-08-31T13:20:09.186Z,32.53
2022-08-31T13:21:09.155Z,32.36
2022-08-31T13:22:09.136Z,32.19
2022-08-31T13:23:09.112Z,32.16
2022-08-31T13:24:09.089Z,32.07
2022-08-31T13:25:09.069Z,31.97
2022-08-31T13:26:09.048Z,31.96
2022-08-31T13:27:09.027Z,31.93
2022-08-31T13:28:09.000Z,32.07
2022-08-31T13:29:08.979Z,32.18
2022-08-31T13:30:08.959Z,32.01
2022-08-31T13:31:09.008Z,31.99
2022-08-31T13:32:08.908Z,31.89
2022-08-31T13:33:11.835Z,31.81
2022-08-31T13:34:08.863Z,31.85
2022-08-31T13:35:08.838Z,31.92
2022-08-31T13:36:08.819Z,31.90
2022-08-31T13:37:08.791Z,31.90
2022-08-31T13:38:08.776Z,31.55
2022-08-31T13:39:08.751Z,31.49
2022-08-31T13:40:08.820Z,31.51
2022-08-31T13:41:08.705Z,31.49
2022-08-31T13:42:08.683Z,31.47
2022-08-31T13:43:08.655Z,31.25
2022-08-31T13:44:08.631Z,31.27
2022-08-31T13:45:08.612Z,30.97
2022-08-31T13:46:08.668Z,30.84
2022-08-31T13:47:08.564Z,30.85
2022-08-31T13:48:09.139Z,30.80
2022-08-31T13:49:08.642Z,30.81
2022-08-31T13:50:08.496Z,30.81
2022-08-31T13:51:08.470Z,30.75
2022-08-31T13:52:08.456Z,30.66
2022-08-31T13:53:26.784Z,30.50
2022-08-31T13:54:08.404Z,30.43
2022-08-31T13:55:08.376Z,30.39
2022-08-31T13:56:08.354Z,30.27
2022-08-31T13:57:08.326Z,30.15
2022-08-31T13:58:08.315Z,29.98
2022-08-31T13:59:08.337Z,29.87
2022-08-31T14:00:08.261Z,29.87
2022-08-31T14:01:08.286Z,29.72
2022-08-31T14:02:08.268Z,29.65
2022-08-31T14:03:08.201Z,29.56
2022-08-31T14:04:08.162Z,29.59
2022-08-31T14:05:08.149Z,29.53
2022-08-31T14:06:08.116Z,29.49
2022-08-31T14:07:08.093Z,29.51
2022-08-31T14:08:08.067Z,29.59
2022-08-31T14:09:08.049Z,29.51
2022-08-31T14:10:08.018Z,29.32
2022-08-31T14:11:07.992Z,29.24
2022-08-31T14:12:07.967Z,29.27
2022-08-31T14:13:08.066Z,29.26
2022-08-31T14:14:08.726Z,29.31
2022-08-31T14:15:07.895Z,29.42
2022-08-31T14:16:07.887Z,29.53
2022-08-31T14:17:07.907Z,29.59
2022-08-31T14:18:25.218Z,29.81
2022-08-31T14:19:07.924Z,29.87
2022-08-31T14:20:07.857Z,29.75
2022-08-31T14:21:20.564Z,29.94
2022-08-31T14:22:07.771Z,30.00
2022-08-31T14:23:07.702Z,30.00
2022-08-31T14:24:07.676Z,30.13
2022-08-31T14:25:07.650Z,30.19
2022-08-31T14:26:07.628Z,30.30
2022-08-31T14:27:07.810Z,30.48
2022-08-31T14:28:07.636Z,30.80
2022-08-31T14:29:07.554Z,30.97
2022-08-31T14:30:07.645Z,31.27
2022-08-31T14:31:07.523Z,31.43
2022-08-31T14:32:07.511Z,31.42
2022-08-31T14:33:07.460Z,31.52
2022-08-31T14:34:07.444Z,31.49
2022-08-31T14:35:11.224Z,31.52
2022-08-31T14:36:07.394Z,31.62
2022-08-31T14:37:07.369Z,31.62
2022-08-31T14:38:07.345Z,31.55
2022-08-31T14:39:07.318Z,31.39
2022-08-31T14:40:07.984Z,31.54
2022-08-31T14:41:07.274Z,31.70
2022-08-31T14:42:07.249Z,32.00
2022-08-31T14:44:45.761Z,32.33
2022-08-31T14:45:45.810Z,32.46
2022-08-31T14:49:30.591Z,32.48
2022-08-31T14:50:28.141Z,32.22
2022-08-31T14:52:20.994Z,32.33
2022-08-31T14:53:20.971Z,32.34
2022-08-31T14:55:24.909Z,32.51
2022-08-31T14:56:24.864Z,32.48
2022-08-31T14:58:30.478Z,32.63
2022-08-31T14:59:30.450Z,32.73
2022-08-31T15:01:34.414Z,32.93
2022-08-31T15:02:34.468Z,32.80
2022-08-31T15:04:42.803Z,32.83
2022-08-31T15:05:38.240Z,32.89
2022-08-31T15:07:42.238Z,32.89
2022-08-31T15:08:42.134Z,32.92
2022-08-31T15:10:46.066Z,32.74
2022-08-31T15:11:46.029Z,32.73
2022-08-31T15:13:49.950Z,33.00
2022-08-31T15:14:49.926Z,33.05
2022-08-31T15:16:53.873Z,33.30
2022-08-31T15:17:53.823Z,33.49
2022-08-31T15:20:12.284Z,33.17
2022-08-31T15:21:10.475Z,32.90
2022-08-31T15:22:10.451Z,32.90
2022-08-31T15:23:10.425Z,32.83
2022-08-31T15:24:10.405Z,32.90
2022-08-31T15:25:10.385Z,32.97
2022-08-31T15:34:31.089Z,33.17
2022-08-31T15:35:27.970Z,33.09
2022-08-31T15:37:32.323Z,32.95
2022-08-31T15:38:31.863Z,33.11
2022-08-31T15:40:38.986Z,33.28
2022-08-31T15:41:35.758Z,33.36
2022-08-31T15:43:39.681Z,33.64
2022-08-31T15:44:39.660Z,33.62
2022-08-31T15:46:43.595Z,33.68
2022-08-31T15:47:43.564Z,33.83
2022-08-31T15:49:47.483Z,33.74
2022-08-31T15:50:47.451Z,33.90
2022-08-31T15:52:51.909Z,34.18
2022-08-31T15:54:06.485Z,34.14
2022-08-31T15:55:55.266Z,34.24
2022-08-31T15:56:55.239Z,34.06
2022-08-31T15:58:59.181Z,34.02
2022-08-31T15:59:59.139Z,34.13
2022-08-31T16:02:03.132Z,34.47
2022-08-31T16:03:03.033Z,34.51
2022-08-31T16:04:57.076Z,34.80
2022-08-31T16:05:57.028Z,34.78
2022-08-31T16:08:17.784Z,34.97
2022-08-31T16:09:17.679Z,35.02
2022-08-31T16:11:46.714Z,35.17
2022-08-31T16:12:46.654Z,35.23
2022-08-31T16:14:40.807Z,35.15
2022-08-31T16:15:40.781Z,35.24
2022-08-31T16:16:40.864Z,35.27
2022-08-31T16:17:40.740Z,35.37
2022-08-31T16:18:40.722Z,35.08
2022-08-31T16:19:40.703Z,34.90
2022-08-31T16:20:40.677Z,34.78
2022-08-31T16:21:40.654Z,34.61
2022-08-31T16:22:40.635Z,34.54
2022-08-31T16:23:40.610Z,34.55
2022-08-31T16:24:40.592Z,34.71
2022-08-31T16:25:48.333Z,34.62
2022-08-31T16:26:40.546Z,34.77
2022-08-31T16:27:40.524Z,34.74
2022-08-31T16:28:40.509Z,34.73
2022-08-31T16:29:40.482Z,34.60
2022-08-31T16:30:40.460Z,34.70
2022-08-31T16:31:40.467Z,34.71
2022-08-31T16:32:40.419Z,34.66
2022-08-31T16:33:40.405Z,34.78
2022-08-31T16:34:40.373Z,34.73
2022-08-31T16:35:40.355Z,34.67
2022-08-31T16:36:40.330Z,34.77
2022-08-31T16:37:40.320Z,34.58
2022-08-31T16:38:40.287Z,34.67
2022-08-31T16:39:40.277Z,34.62
2022-08-31T16:40:40.323Z,34.57
2022-08-31T16:41:40.226Z,34.48
2022-08-31T16:42:40.199Z,34.38
2022-08-31T16:43:40.181Z,34.33
2022-08-31T16:44:40.158Z,34.24
2022-08-31T16:45:40.189Z,34.25
2022-08-31T16:46:41.408Z,34.14
2022-08-31T16:47:40.093Z,34.17
2022-08-31T16:48:40.076Z,34.13
2022-08-31T16:49:40.049Z,34.06
2022-08-31T16:50:40.038Z,33.83
2022-08-31T16:51:40.007Z,33.90
2022-08-31T16:52:39.988Z,33.69
2022-08-31T16:53:39.964Z,33.74
2022-08-31T16:54:39.945Z,33.49
2022-08-31T16:55:39.929Z,33.45
2022-08-31T16:56:39.900Z,33.30
2022-08-31T16:57:39.881Z,33.27
2022-08-31T16:58:51.735Z,33.19
2022-08-31T16:59:39.830Z,33.09
2022-08-31T17:00:39.845Z,33.09
2022-08-31T17:01:39.816Z,32.93
2022-08-31T17:02:39.854Z,32.87
2022-08-31T17:03:39.740Z,32.86
2022-08-31T17:04:55.001Z,32.71
2022-08-31T17:05:39.695Z,32.71
2022-08-31T17:06:39.673Z,32.55
2022-08-31T17:07:39.660Z,32.48
2022-08-31T17:08:39.628Z,32.31
2022-08-31T17:09:39.604Z,32.36
2022-08-31T17:10:39.582Z,32.19
2022-08-31T17:11:39.562Z,32.14
2022-08-31T17:12:39.540Z,31.99
2022-08-31T17:13:39.516Z,31.87
2022-08-31T17:14:39.492Z,31.78
2022-08-31T17:15:39.474Z,31.76
2022-08-31T17:16:39.511Z,31.59
2022-08-31T17:17:39.424Z,31.58
2022-08-31T17:18:39.398Z,31.37
2022-08-31T17:19:39.376Z,31.37
2022-08-31T17:20:39.362Z,31.37
2022-08-31T17:21:39.333Z,31.18
2022-08-31T17:22:39.304Z,31.28
2022-08-31T17:23:39.307Z,31.17
2022-08-31T17:24:39.266Z,31.07
2022-08-31T17:25:39.238Z,30.92
2022-08-31T17:26:39.216Z,30.88
2022-08-31T17:27:39.190Z,30.83
2022-08-31T17:28:39.166Z,30.68
2022-08-31T17:29:43.792Z,30.59
2022-08-31T17:30:39.154Z,30.53
2022-08-31T17:31:39.134Z,30.39
2022-08-31T17:32:44.594Z,30.39
2022-08-31T17:33:39.054Z,30.15
2022-08-31T17:34:39.023Z,30.19
2022-08-31T17:35:39.006Z,30.13
2022-08-31T17:36:38.975Z,30.00
2022-08-31T17:37:38.964Z,29.90
2022-08-31T17:38:38.955Z,29.93
2022-08-31T17:39:38.911Z,29.75
2022-08-31T17:40:38.944Z,29.65
2022-08-31T17:41:38.861Z,29.69
2022-08-31T17:42:38.830Z,29.56
2022-08-31T17:43:38.808Z,29.50
2022-08-31T17:44:38.782Z,29.45
2022-08-31T17:45:38.764Z,29.31
2022-08-31T17:46:38.818Z,29.31
2022-08-31T17:47:38.711Z,29.20
2022-08-31T17:48:38.685Z,29.12
2022-08-31T17:49:40.387Z,29.07
2022-08-31T17:50:38.638Z,29.02
2022-08-31T17:51:38.612Z,28.93
2022-08-31T17:52:38.590Z,28.88
2022-08-31T17:53:38.572Z,28.79
2022-08-31T17:54:38.536Z,28.74
2022-08-31T17:55:38.512Z,28.64
2022-08-31T17:56:38.493Z,28.63
2022-08-31T17:57:38.471Z,28.47
2022-08-31T17:58:38.444Z,28.41
2022-08-31T17:59:38.415Z,28.54
2022-08-31T18:00:38.433Z,28.37
2022-08-31T18:01:38.365Z,28.37
2022-08-31T18:02:38.342Z,28.25
2022-08-31T18:03:38.354Z,28.30
2022-08-31T18:04:38.353Z,28.12
2022-08-31T18:05:43.087Z,28.19
2022-08-31T18:06:39.103Z,28.07
2022-08-31T18:07:38.215Z,28.07
2022-08-31T18:08:38.187Z,28.00
2022-08-31T18:09:38.164Z,27.98
2022-08-31T18:10:38.137Z,27.92
2022-08-31T18:11:38.126Z,27.85
2022-08-31T18:12:38.090Z,27.78
2022-08-31T18:13:38.070Z,27.74
2022-08-31T18:14:38.059Z,27.64
2022-08-31T18:15:38.013Z,27.60
2022-08-31T18:16:38.051Z,27.55
2022-08-31T18:17:37.964Z,27.52
2022-08-31T18:18:37.933Z,27.49
2022-08-31T18:19:37.916Z,27.40